createdAt,value
2022-11-29T00:01:19.879Z,16.73
2022-11-29T00:04:01.403Z,16.85
2022-11-29T00:07:08.172Z,20.25
2022-11-29T00:10:08.122Z,19.52
2022-11-29T00:16:13.045Z,19.45
2022-11-29T00:19:08.025Z,20.08
2022-11-29T00:21:37.047Z,18.35
2022-11-29T00:24:10.347Z,18.52
2022-11-29T00:27:02.587Z,21.92
2022-11-29T00:29:31.051Z,19.95
2022-11-29T00:31:57.673Z,21.30
2022-11-29T00:34:24.493Z,19.42
2022-11-29T00:37:13.367Z,20.42
2022-11-29T00:39:41.053Z,23.10
2022-11-29T00:42:08.055Z,19.95
2022-11-29T00:47:44.218Z,17.55
2022-11-29T00:50:31.807Z,21.65
2022-11-29T00:52:58.310Z,19.70
2022-11-29T00:55:25.066Z,19.35
2022-11-29T00:57:51.866Z,19.05
2022-11-29T01:00:18.669Z,19.25
2022-11-29T01:03:20.047Z,21.55
2022-11-29T01:05:50.161Z,20.88
2022-11-29T01:08:17.464Z,21.40
2022-11-29T01:11:06.835Z,20.05
2022-11-29T01:14:03.243Z,23.45
2022-11-29T01:16:31.879Z,20.52
2022-11-29T01:19:11.188Z,22.67
2022-11-29T01:21:38.059Z,21.88
2022-11-29T01:26:52.578Z,26.73
2022-11-29T01:29:19.353Z,24.13
2022-11-29T01:31:46.002Z,22.85
2022-11-29T01:34:12.626Z,23.08
2022-11-29T01:36:57.790Z,20.98
2022-11-29T01:39:24.721Z,22.05
2022-11-29T01:42:19.596Z,21.33
2022-11-29T01:45:29.223Z,26.13
2022-11-29T01:47:59.294Z,23.45
2022-11-29T01:50:26.038Z,24.50
2022-11-29T01:53:00.866Z,25.10
2022-11-29T01:55:28.264Z,21.25
2022-11-29T01:58:00.433Z,20.65
2022-11-29T02:00:28.728Z,21.70
2022-11-29T02:03:08.368Z,22.63
2022-11-29T02:05:36.599Z,21.88
2022-11-29T02:08:03.658Z,27.38
2022-11-29T02:14:07.356Z,19.25
2022-11-29T02:17:21.486Z,25.17
2022-11-29T02:20:28.690Z,23.67
2022-11-29T02:23:31.170Z,20.35
2022-11-29T02:26:20.237Z,20.50
2022-11-29T02:29:08.281Z,23.02
2022-11-29T02:32:04.366Z,21.52
2022-11-29T02:35:06.149Z,20.90
2022-11-29T02:37:57.380Z,22.92
2022-11-29T02:41:14.333Z,23.17
2022-11-29T02:44:19.653Z,19.33
2022-11-29T02:47:13.716Z,19.33
2022-11-29T02:49:52.159Z,24.70
2022-11-29T02:52:27.829Z,22.05
2022-11-29T02:55:36.062Z,24.25
2022-11-29T02:58:13.883Z,22.77
2022-11-29T03:04:08.180Z,21.17
2022-11-29T03:07:55.245Z,20.98
2022-11-29T03:10:51.375Z,23.42
2022-11-29T03:13:47.794Z,22.77
2022-11-29T03:19:24.152Z,16.70
2022-11-29T03:22:14.980Z,18.80
2022-11-29T03:25:46.317Z,22.85
2022-11-29T03:29:19.460Z,24.63
2022-11-29T03:32:15.642Z,23.35
2022-11-29T03:38:59.499Z,23.90
2022-11-29T03:42:06.374Z,22.40
2022-11-29T03:45:25.753Z,22.13
2022-11-29T03:48:18.699Z,19.15
2022-11-29T03:51:19.423Z,20.00
2022-11-29T03:54:15.491Z,23.38
2022-11-29T03:57:17.545Z,19.48
2022-11-29T03:59:53.586Z,19.20
2022-11-29T04:02:33.320Z,22.35
2022-11-29T04:05:28.343Z,19.83
2022-11-29T04:08:13.269Z,20.85
2022-11-29T04:11:18.095Z,24.10
2022-11-29T04:14:13.933Z,19.50
2022-11-29T04:17:31.914Z,25.13
2022-11-29T04:20:41.143Z,22.63
2022-11-29T04:23:59.930Z,22.50
2022-11-29T04:29:54.800Z,23.80
2022-11-29T04:33:02.870Z,24.25
2022-11-29T04:35:46.378Z,23.17
2022-11-29T04:39:12.356Z,22.48
2022-11-29T04:44:25.884Z,19.92
2022-11-29T04:47:02.977Z,20.20
2022-11-29T04:50:12.861Z,23.42
2022-11-29T04:53:25.872Z,20.58
2022-11-29T04:56:18.587Z,21.90
2022-11-29T04:59:23.454Z,21.10
2022-11-29T05:02:35.978Z,19.80
2022-11-29T05:08:05.735Z,23.90
2022-11-29T05:11:27.192Z,22.42
2022-11-29T05:14:24.977Z,22.40
2022-11-29T05:17:24.808Z,26.38
2022-11-29T05:20:10.675Z,24.17
2022-11-29T05:23:16.486Z,25.30
2022-11-29T05:26:08.815Z,28.17
2022-11-29T05:29:02.772Z,28.90
2022-11-29T05:31:45.150Z,25.40
2022-11-29T05:34:34.548Z,25.23
2022-11-29T05:37:39.915Z,23.60
2022-11-29T05:40:25.247Z,22.00
2022-11-29T05:43:18.881Z,26.60
2022-11-29T05:46:10.037Z,26.17
2022-11-29T05:49:02.022Z,27.77
2022-11-29T05:51:53.099Z,28.30
2022-11-29T05:55:12.686Z,23.95
2022-11-29T05:58:17.509Z,30.65
2022-11-29T06:01:06.161Z,24.95
2022-11-29T06:03:38.883Z,30.40
2022-11-29T06:06:19.451Z,27.33
2022-11-29T06:09:31.059Z,25.17
2022-11-29T06:12:05.436Z,31.35
2022-11-29T06:15:14.155Z,29.17
2022-11-29T06:18:10.408Z,24.33
2022-11-29T06:25:09.167Z,22.95
2022-11-29T06:28:08.805Z,31.52
2022-11-29T06:31:01.032Z,29.67
2022-11-29T06:33:48.929Z,23.73
2022-11-29T06:36:21.068Z,29.00
2022-11-29T06:39:12.956Z,24.33
2022-11-29T06:41:39.558Z,24.38
2022-11-29T06:44:35.836Z,25.80
2022-11-29T06:53:26.069Z,30.83
2022-11-29T06:56:01.315Z,24.30
2022-11-29T07:01:53.248Z,24.10
2022-11-29T07:05:13.352Z,29.83
2022-11-29T07:07:41.829Z,24.33
2022-11-29T07:10:37.362Z,27.95
2022-11-29T07:13:27.462Z,24.05
2022-11-29T07:16:06.863Z,27.77
2022-11-29T07:26:10.577Z,25.15
2022-11-29T07:29:15.035Z,24.85
2022-11-29T08:16:37.519Z,23.33
2022-11-29T08:19:11.017Z,26.77
2022-11-29T08:27:44.235Z,25.17
2022-11-29T08:30:18.106Z,27.60
2022-11-29T09:37:25.440Z,26.08
2022-11-29T09:41:09.594Z,26.65
2022-11-29T10:16:26.093Z,27.73
2022-11-29T10:33:42.656Z,27.25
2022-11-29T10:40:23.303Z,26.90
2022-11-29T10:43:13.474Z,28.10
2022-11-29T10:46:41.336Z,26.75
2022-11-29T10:49:35.077Z,29.00
2022-11-29T11:09:52.439Z,25.02
2022-11-29T11:13:04.984Z,34.80
2022-11-29T11:15:49.081Z,30.55
2022-11-29T11:25:26.647Z,26.13
2022-11-29T11:28:21.627Z,34.28
2022-11-29T11:31:17.047Z,33.72
2022-11-29T11:33:59.246Z,33.97
2022-11-29T11:37:25.721Z,35.55
2022-11-29T11:40:29.301Z,47.35
2022-11-29T11:43:19.922Z,37.72
2022-11-29T11:46:03.466Z,34.33
2022-11-29T11:48:43.349Z,32.97
2022-11-29T11:52:00.866Z,33.63
2022-11-29T11:54:33.648Z,29.55
2022-11-29T12:01:38.111Z,31.77
2022-11-29T12:04:48.100Z,27.27
2022-11-29T12:07:59.735Z,29.45
2022-11-29T12:10:49.825Z,35.35
2022-11-29T12:18:39.671Z,28.30
2022-11-29T14:01:05.461Z,26.95
2022-11-29T16:14:51.575Z,30.58
2022-11-29T17:05:32.815Z,36.22
2022-11-29T18:12:04.228Z,31.80
2022-11-29T18:25:36.837Z,28.98
2022-11-29T18:28:34.246Z,34.70
2022-11-29T18:31:57.428Z,35.67
2022-11-29T18:51:40.184Z,29.48
2022-11-29T18:58:35.000Z,31.70
2022-11-29T19:01:57.737Z,33.92
2022-11-29T19:29:12.254Z,34.17
2022-11-29T19:32:08.133Z,28.27
2022-11-29T19:39:33.190Z,31.60
2022-11-29T19:45:53.102Z,29.15
2022-11-29T19:53:35.187Z,31.58
2022-11-29T20:01:12.753Z,42.08
2022-11-29T20:26:17.014Z,34.75
2022-11-29T20:59:51.579Z,28.83
2022-11-29T21:16:32.704Z,32.65
2022-11-29T21:37:38.271Z,31.15
2022-11-29T21:44:06.809Z,30.27
2022-11-29T21:47:27.001Z,32.22
2022-11-29T21:49:58.744Z,34.22
2022-11-29T21:52:53.413Z,33.63
2022-11-29T21:55:51.576Z,31.05
2022-11-29T22:01:45.298Z,34.53
2022-11-29T22:04:25.467Z,30.98
2022-11-29T22:07:37.071Z,35.22
2022-11-29T22:10:36.415Z,35.83
2022-11-29T22:13:16.950Z,31.65
2022-11-29T22:15:47.089Z,30.95
2022-11-29T22:22:02.409Z,31.10
2022-11-29T22:24:39.502Z,30.65
2022-11-29T22:27:10.981Z,30.23
2022-11-29T22:29:48.957Z,32.28
2022-11-29T22:32:22.590Z,30.35
2022-11-29T22:34:49.636Z,35.30
2022-11-29T22:40:07.212Z,27.58
2022-11-29T22:42:34.286Z,36.42
2022-11-29T22:49:00.889Z,29.85
2022-11-29T22:51:32.788Z,33.63
2022-11-29T22:54:09.547Z,36.35
2022-11-29T22:56:53.827Z,30.88
2022-11-29T22:59:20.907Z,33.17
2022-11-29T23:01:56.842Z,34.95
2022-11-29T23:04:51.314Z,38.53
2022-11-29T23:07:27.588Z,39.55
2022-11-29T23:10:02.531Z,38.03
2022-11-29T23:12:29.790Z,30.63
2022-11-29T23:14:59.588Z,32.95
2022-11-29T23:17:27.169Z,31.83
2022-11-29T23:19:53.788Z,28.98
2022-11-29T23:23:31.976Z,32.38
2022-11-29T23:29:41.828Z,30.05
2022-11-29T23:32:12.400Z,29.48
2022-11-29T23:34:39.026Z,33.25
2022-11-29T23:37:46.330Z,36.67
2022-11-29T23:40:13.971Z,32.20
2022-11-29T23:42:45.098Z,30.25
2022-11-29T23:45:58.888Z,33.95
2022-11-29T23:52:21.067Z,39.20
2022-11-29T23:54:48.103Z,34.10
